createdAt,value
2018-05-24T00:01:30.344Z,72.80
2018-05-24T00:03:58.433Z,73.10
2018-05-24T00:06:28.278Z,73.60
2018-05-24T00:08:55.867Z,73.70
2018-05-24T00:11:24.289Z,75.70
2018-05-24T00:13:52.437Z,75.70
2018-05-24T00:16:21.068Z,78.00
2018-05-24T00:18:48.969Z,78.00
2018-05-24T00:21:16.747Z,79.60
2018-05-24T00:23:44.736Z,81.00
2018-05-24T00:26:13.614Z,83.10
2018-05-24T00:28:41.495Z,83.00
2018-05-24T00:31:10.543Z,84.50
2018-05-24T00:33:39.396Z,84.40
2018-05-24T00:36:07.850Z,85.90
2018-05-24T00:38:36.451Z,85.80
2018-05-24T00:41:04.964Z,86.20
2018-05-24T00:43:32.576Z,86.20
2018-05-24T00:46:00.673Z,86.20
2018-05-24T00:48:29.529Z,86.40
2018-05-24T00:50:57.559Z,86.10
2018-05-24T00:53:25.247Z,86.30
2018-05-24T00:55:52.948Z,85.80
2018-05-24T00:58:21.101Z,85.30
2018-05-24T01:00:48.765Z,85.40
2018-05-24T01:03:16.405Z,85.50
2018-05-24T01:05:44.852Z,84.60
2018-05-24T01:08:12.561Z,83.90
2018-05-24T01:10:40.672Z,83.50
2018-05-24T01:13:08.857Z,83.30
2018-05-24T01:15:36.742Z,83.70
2018-05-24T01:18:04.517Z,83.00
2018-05-24T01:20:33.971Z,82.60
2018-05-24T01:23:02.944Z,82.70
2018-05-24T01:25:30.593Z,82.90
2018-05-24T01:27:58.968Z,82.60
2018-05-24T01:30:27.356Z,87.10
2018-05-24T01:32:55.515Z,87.10
2018-05-24T01:35:23.135Z,89.10
2018-05-24T01:37:50.803Z,90.30
2018-05-24T01:40:18.430Z,91.20
2018-05-24T01:42:46.063Z,91.80
2018-05-24T01:45:14.049Z,93.30
2018-05-24T01:47:42.718Z,95.00
2018-05-24T01:50:10.771Z,95.00
2018-05-24T01:52:38.403Z,95.70
2018-05-24T01:55:06.202Z,95.90
2018-05-24T01:57:34.717Z,95.80
2018-05-24T02:00:02.857Z,95.00
2018-05-24T02:02:31.393Z,95.40
2018-05-24T02:04:59.011Z,95.80
2018-05-24T02:07:26.933Z,95.70
2018-05-24T02:09:54.786Z,95.90
2018-05-24T02:12:22.479Z,95.80
2018-05-24T02:14:50.407Z,96.70
2018-05-24T02:17:18.046Z,96.50
2018-05-24T02:19:45.713Z,96.70
2018-05-24T02:22:13.300Z,96.90
2018-05-24T02:24:40.879Z,97.10
2018-05-24T02:27:09.680Z,97.10
2018-05-24T02:29:38.673Z,97.00
2018-05-24T02:32:10.698Z,97.50
2018-05-24T02:34:38.282Z,97.60
2018-05-24T02:37:06.875Z,97.60
2018-05-24T02:39:35.364Z,97.60
2018-05-24T02:42:03.855Z,97.90
2018-05-24T02:44:32.345Z,98.10
2018-05-24T02:47:00.298Z,98.00
2018-05-24T02:49:29.041Z,98.10
2018-05-24T02:51:56.623Z,98.60
2018-05-24T02:54:24.598Z,98.60
2018-05-24T02:56:53.746Z,98.60
2018-05-24T02:59:21.353Z,98.60
2018-05-24T03:01:49.024Z,98.00
2018-05-24T03:04:16.778Z,97.70
2018-05-24T03:06:44.430Z,97.50
2018-05-24T03:09:12.164Z,98.00
2018-05-24T03:11:40.556Z,97.70
2018-05-24T03:14:08.942Z,97.40
2018-05-24T03:16:36.900Z,97.40
2018-05-24T03:19:04.641Z,97.80
2018-05-24T03:21:33.049Z,97.70
2018-05-24T03:24:00.751Z,97.70
2018-05-24T03:26:28.375Z,98.10
2018-05-24T03:28:56.586Z,97.80
2018-05-24T03:31:25.785Z,97.50
2018-05-24T03:33:54.483Z,97.90
2018-05-24T03:36:22.110Z,97.90
2018-05-24T03:38:50.534Z,97.90
2018-05-24T03:41:19.976Z,97.90
2018-05-24T03:43:48.657Z,97.70
2018-05-24T03:46:16.853Z,97.60
2018-05-24T03:48:44.780Z,97.60
2018-05-24T03:51:12.462Z,97.80
2018-05-24T03:53:40.106Z,97.70
2018-05-24T03:56:08.643Z,97.80
2018-05-24T03:58:36.236Z,97.90
2018-05-24T04:01:15.761Z,97.50
2018-05-24T04:03:48.386Z,97.50
2018-05-24T04:06:16.194Z,97.70
2018-05-24T04:08:44.400Z,97.30
2018-05-24T04:11:13.006Z,97.80
2018-05-24T04:13:40.590Z,97.40
2018-05-24T04:16:08.178Z,97.50
2018-05-24T04:18:37.346Z,97.80
2018-05-24T04:21:04.940Z,97.80
2018-05-24T04:23:32.551Z,97.90
2018-05-24T04:26:00.182Z,98.30
2018-05-24T04:28:27.791Z,98.20
2018-05-24T04:30:55.718Z,98.40
2018-05-24T04:33:23.586Z,98.70
2018-05-24T04:35:51.948Z,98.50
2018-05-24T04:38:19.566Z,98.40
2018-05-24T04:40:47.156Z,98.70
2018-05-24T04:43:14.757Z,98.90
2018-05-24T04:45:43.223Z,99.30
2018-05-24T04:48:10.851Z,99.30
2018-05-24T04:50:40.893Z,99.40
2018-05-24T04:53:10.949Z,99.10
2018-05-24T04:55:38.551Z,99.70
2018-05-24T04:58:06.146Z,99.70
2018-05-24T05:00:34.278Z,99.70
2018-05-24T05:03:02.738Z,99.20
2018-05-24T05:05:31.293Z,99.30
2018-05-24T05:07:58.893Z,99.30
2018-05-24T05:10:28.292Z,99.30
2018-05-24T05:12:56.674Z,99.60
2018-05-24T05:15:24.609Z,99.60
2018-05-24T05:17:52.318Z,99.50
2018-05-24T05:20:19.977Z,99.50
2018-05-24T05:22:47.562Z,99.70
2018-05-24T05:25:15.213Z,99.40
2018-05-24T05:27:44.125Z,99.40
2018-05-24T05:30:13.383Z,99.40
2018-05-24T05:32:42.122Z,98.70
2018-05-24T05:35:10.302Z,98.70
2018-05-24T05:37:38.786Z,98.80
2018-05-24T05:40:06.399Z,99.00
2018-05-24T05:42:34.005Z,99.00
2018-05-24T05:45:01.734Z,99.00
2018-05-24T05:47:29.350Z,99.20
2018-05-24T05:49:56.989Z,99.30
2018-05-24T05:52:24.726Z,98.60
2018-05-24T05:54:52.387Z,98.90
2018-05-24T05:57:20.691Z,99.00
2018-05-24T05:59:49.297Z,99.30
2018-05-24T06:02:19.091Z,99.00
2018-05-24T06:04:47.494Z,98.80
2018-05-24T06:07:15.116Z,98.80
2018-05-24T06:09:43.203Z,98.60
2018-05-24T06:12:11.028Z,97.70
2018-05-24T06:14:38.827Z,98.50
2018-05-24T06:17:06.973Z,98.60
2018-05-24T06:19:34.621Z,98.40
2018-05-24T06:22:02.334Z,98.70
2018-05-24T06:24:30.031Z,98.80
2018-05-24T06:26:58.190Z,99.00
2018-05-24T06:29:26.084Z,98.90
2018-05-24T06:31:54.345Z,99.10
2018-05-24T06:34:23.706Z,99.60
2018-05-24T06:36:52.010Z,99.50
2018-05-24T06:39:19.957Z,99.60
2018-05-24T06:41:47.848Z,99.60
2018-05-24T06:44:16.307Z,99.70
2018-05-24T06:46:43.964Z,99.80
2018-05-24T06:49:11.958Z,99.90
2018-05-24T06:51:39.654Z,99.50
2018-05-24T06:54:08.074Z,99.70
2018-05-24T06:56:35.767Z,99.80
2018-05-24T06:59:03.397Z,99.80
2018-05-24T07:01:32.146Z,99.00
2018-05-24T07:04:01.758Z,99.50
2018-05-24T07:06:37.777Z,99.90
2018-05-24T07:09:12.215Z,99.60
2018-05-24T07:11:40.918Z,99.90
2018-05-24T07:14:08.677Z,99.60
2018-05-24T07:16:37.440Z,99.70
2018-05-24T07:19:05.731Z,99.40
2018-05-24T07:21:34.326Z,99.10
2018-05-24T07:24:04.769Z,99.10
2018-05-24T07:29:11.703Z,99.30
2018-05-24T07:31:39.354Z,98.30
2018-05-24T07:34:07.760Z,98.00
2018-05-24T07:36:35.363Z,98.00
2018-05-24T07:39:03.021Z,98.00
2018-05-24T07:41:30.638Z,97.60
2018-05-24T07:43:58.297Z,98.20
2018-05-24T07:46:26.080Z,98.40
2018-05-24T07:48:53.775Z,98.90
2018-05-24T07:51:21.495Z,98.90
2018-05-24T07:53:49.987Z,98.20
2018-05-24T07:56:18.366Z,98.60
2018-05-24T07:58:45.982Z,98.60
2018-05-24T08:01:13.630Z,98.10
2018-05-24T08:03:41.213Z,98.50
2018-05-24T08:06:08.823Z,98.00
2018-05-24T08:08:36.582Z,97.90
2018-05-24T08:11:04.129Z,97.50
2018-05-24T08:13:32.499Z,98.00
2018-05-24T08:16:00.733Z,98.20
2018-05-24T08:18:28.378Z,98.50
2018-05-24T08:20:56.010Z,98.70
2018-05-24T08:23:23.641Z,99.10
2018-05-24T08:25:51.326Z,98.70
2018-05-24T08:28:18.955Z,99.10
2018-05-24T08:30:46.749Z,98.80
2018-05-24T08:33:14.786Z,98.50
2018-05-24T08:35:42.378Z,99.10
2018-05-24T08:38:10.014Z,99.20
2018-05-24T08:40:37.675Z,99.10
2018-05-24T08:43:06.121Z,97.80
2018-05-24T08:45:33.843Z,97.80
2018-05-24T08:48:01.478Z,98.10
2018-05-24T08:50:29.878Z,98.10
2018-05-24T08:52:59.032Z,98.10
2018-05-24T08:55:26.622Z,98.80
2018-05-24T08:57:55.858Z,98.50
2018-05-24T09:00:23.601Z,98.50
2018-05-24T09:02:52.493Z,98.30
2018-05-24T09:05:20.117Z,97.70
2018-05-24T09:07:47.773Z,98.10
2018-05-24T09:10:15.375Z,98.00
2018-05-24T09:12:43.402Z,98.10
2018-05-24T09:15:11.081Z,98.00
2018-05-24T09:17:38.774Z,98.00
2018-05-24T09:20:06.657Z,97.50
2018-05-24T09:22:36.065Z,97.70
2018-05-24T09:25:03.711Z,96.90
2018-05-24T09:27:32.070Z,96.40
2018-05-24T09:30:00.294Z,96.40
2018-05-24T09:32:28.714Z,96.90
2018-05-24T09:34:56.293Z,96.60
2018-05-24T09:37:24.285Z,96.20
2018-05-24T09:39:52.695Z,96.00
2018-05-24T09:42:20.353Z,95.90
2018-05-24T09:44:47.995Z,95.70
2018-05-24T09:47:15.617Z,96.00
2018-05-24T09:49:43.202Z,95.80
2018-05-24T09:52:10.861Z,95.50
2018-05-24T09:54:39.375Z,94.90
2018-05-24T09:57:07.480Z,96.10
2018-05-24T09:59:35.534Z,96.00
2018-05-24T10:02:03.958Z,94.20
2018-05-24T10:04:32.375Z,94.30
2018-05-24T10:06:59.937Z,95.40
2018-05-24T10:09:27.545Z,95.70
2018-05-24T10:11:55.131Z,95.00
2018-05-24T10:14:23.706Z,95.50
2018-05-24T10:16:51.611Z,95.90
2018-05-24T10:19:19.331Z,95.80
2018-05-24T10:21:48.046Z,95.70
2018-05-24T10:24:16.661Z,94.60
2018-05-24T10:26:45.147Z,94.50
2018-05-24T10:29:13.673Z,94.50
2018-05-24T10:31:41.355Z,94.90
2018-05-24T10:34:08.978Z,94.20
2018-05-24T10:36:37.025Z,94.50
2018-05-24T10:39:05.966Z,95.60
2018-05-24T10:41:34.740Z,95.50
2018-05-24T10:44:03.391Z,95.00
2018-05-24T10:46:31.330Z,95.40
2018-05-24T10:48:58.948Z,95.40
2018-05-24T10:51:27.329Z,95.40
2018-05-24T10:53:54.936Z,95.30
2018-05-24T10:56:22.541Z,95.10
2018-05-24T10:58:50.177Z,95.10
2018-05-24T11:01:17.809Z,94.70
2018-05-24T11:03:45.465Z,94.30
2018-05-24T11:06:13.070Z,94.20
2018-05-24T11:08:40.730Z,92.40
2018-05-24T11:11:08.316Z,93.30
2018-05-24T11:13:35.961Z,93.50
2018-05-24T11:16:03.617Z,92.90
2018-05-24T11:18:31.202Z,92.20
2018-05-24T11:20:59.082Z,92.40
2018-05-24T11:23:26.736Z,92.00
2018-05-24T11:25:54.359Z,92.80
2018-05-24T11:28:21.977Z,91.40
2018-05-24T11:30:50.067Z,92.00
2018-05-24T11:33:17.662Z,92.40
2018-05-24T11:35:45.268Z,92.70
2018-05-24T11:38:12.897Z,92.30
2018-05-24T11:40:40.498Z,92.30
2018-05-24T11:43:08.208Z,92.00
2018-05-24T11:45:36.487Z,92.20
2018-05-24T11:48:05.109Z,93.00
2018-05-24T11:50:32.852Z,93.00
2018-05-24T11:53:00.500Z,92.70
2018-05-24T11:55:28.473Z,92.60
2018-05-24T11:57:56.846Z,90.90
2018-05-24T12:00:24.465Z,91.60
2018-05-24T12:02:52.484Z,90.70
2018-05-24T12:05:20.833Z,91.00
2018-05-24T12:07:48.423Z,91.00
2018-05-24T12:10:16.811Z,91.50
2018-05-24T12:12:44.403Z,91.50
2018-05-24T12:15:12.291Z,92.20
2018-05-24T12:17:41.502Z,93.10
2018-05-24T12:20:10.051Z,93.20
2018-05-24T12:22:37.689Z,92.40
2018-05-24T12:25:06.774Z,93.40
2018-05-24T12:27:35.352Z,93.50
2018-05-24T12:30:03.414Z,93.50
2018-05-24T12:32:31.057Z,93.90
2018-05-24T12:34:59.574Z,93.70
2018-05-24T12:37:27.354Z,93.70
2018-05-24T12:39:55.833Z,94.30
2018-05-24T12:42:23.541Z,94.60
2018-05-24T12:44:51.532Z,95.20
2018-05-24T12:47:19.281Z,95.90
2018-05-24T12:49:47.113Z,96.20
2018-05-24T12:52:14.722Z,96.40
2018-05-24T12:54:42.372Z,97.10
2018-05-24T12:57:10.687Z,97.40
2018-05-24T12:59:39.864Z,98.20
2018-05-24T13:02:07.496Z,98.30
2018-05-24T13:04:37.150Z,98.60
2018-05-24T13:07:05.534Z,98.80
2018-05-24T13:09:33.172Z,96.80
2018-05-24T13:12:01.042Z,97.90
2018-05-24T13:14:28.669Z,97.60
2018-05-24T13:16:56.577Z,97.40
2018-05-24T13:19:24.273Z,97.30
2018-05-24T13:21:51.934Z,97.90
2018-05-24T13:24:19.941Z,98.00
2018-05-24T13:26:47.635Z,97.30
2018-05-24T13:29:15.643Z,96.20
2018-05-24T13:31:44.062Z,95.70
2018-05-24T13:34:11.705Z,96.20
2018-05-24T13:36:39.317Z,96.50
2018-05-24T13:39:07.743Z,96.80
2018-05-24T13:41:35.401Z,96.80
2018-05-24T13:44:03.074Z,95.70
2018-05-24T13:46:30.730Z,95.30
2018-05-24T13:48:58.474Z,95.80
2018-05-24T13:51:26.086Z,96.10
2018-05-24T13:53:53.815Z,96.40
2018-05-24T13:56:21.502Z,96.40
2018-05-24T13:58:50.102Z,96.70
2018-05-24T14:01:17.899Z,96.70
2018-05-24T14:03:46.981Z,97.30
2018-05-24T14:06:14.614Z,97.30
2018-05-24T14:08:42.319Z,96.90
2018-05-24T14:11:10.731Z,95.90
2018-05-24T14:13:38.466Z,95.60
2018-05-24T14:16:06.976Z,94.60
2018-05-24T14:18:35.394Z,93.10
2018-05-24T14:21:03.525Z,93.10
2018-05-24T14:23:32.332Z,93.40
2018-05-24T14:25:59.997Z,93.40
2018-05-24T14:28:27.610Z,93.30
2018-05-24T14:30:55.261Z,93.30
2018-05-24T14:33:23.848Z,93.10
2018-05-24T14:35:51.871Z,92.80
2018-05-24T14:38:19.545Z,92.60
2018-05-24T14:40:47.408Z,92.60
2018-05-24T14:43:15.327Z,92.00
2018-05-24T14:45:44.008Z,90.20
2018-05-24T14:48:11.697Z,90.20
2018-05-24T14:50:40.216Z,90.80
2018-05-24T14:53:08.659Z,90.50
2018-05-24T14:55:37.765Z,90.50
2018-05-24T14:58:05.513Z,90.60
2018-05-24T15:00:33.310Z,90.20
2018-05-24T15:03:01.214Z,90.40
2018-05-24T15:05:28.933Z,89.40
2018-05-24T15:07:56.608Z,89.40
2018-05-24T15:10:25.155Z,90.90
2018-05-24T15:12:52.845Z,90.90
2018-05-24T15:15:21.510Z,90.30
2018-05-24T15:17:49.927Z,91.10
2018-05-24T15:20:17.579Z,90.90
2018-05-24T15:22:45.224Z,91.80
2018-05-24T15:25:12.932Z,92.90
2018-05-24T15:27:41.470Z,94.20
2018-05-24T15:30:09.134Z,94.10
2018-05-24T15:32:37.193Z,93.10
2018-05-24T15:35:04.878Z,93.90
2018-05-24T15:37:32.522Z,93.80
2018-05-24T15:40:00.164Z,93.30
2018-05-24T15:42:28.691Z,93.10
2018-05-24T15:44:56.321Z,93.10
2018-05-24T15:47:24.802Z,93.60
2018-05-24T15:49:53.634Z,93.50
2018-05-24T15:52:21.233Z,93.60
2018-05-24T15:54:48.885Z,94.20
2018-05-24T15:57:16.536Z,94.40
2018-05-24T15:59:44.148Z,93.90
2018-05-24T16:02:12.673Z,94.40
2018-05-24T16:04:40.293Z,94.40
2018-05-24T16:07:07.930Z,94.30
2018-05-24T16:09:35.657Z,93.80
2018-05-24T16:12:03.266Z,93.80
2018-05-24T16:14:31.045Z,93.40
2018-05-24T16:17:01.164Z,93.60
2018-05-24T16:19:29.946Z,92.90
2018-05-24T16:21:58.439Z,92.60
2018-05-24T16:24:29.669Z,92.60
2018-05-24T16:26:57.774Z,92.50
2018-05-24T16:29:27.574Z,92.00
2018-05-24T16:31:56.405Z,91.60
2018-05-24T16:34:24.207Z,91.60
2018-05-24T16:36:52.374Z,92.00
2018-05-24T16:39:20.281Z,92.10
2018-05-24T16:41:48.829Z,92.40
2018-05-24T16:44:16.493Z,92.30
2018-05-24T16:46:44.251Z,92.80
2018-05-24T16:49:12.476Z,92.90
2018-05-24T16:51:40.224Z,92.90
2018-05-24T16:54:08.015Z,93.00
2018-05-24T16:56:35.770Z,93.50
2018-05-24T16:59:03.501Z,92.80
2018-05-24T17:01:31.415Z,93.10
2018-05-24T17:03:59.022Z,93.50
2018-05-24T17:06:27.179Z,93.70
2018-05-24T17:08:55.285Z,94.10
2018-05-24T17:11:23.824Z,94.40
2018-05-24T17:13:52.414Z,95.00
2018-05-24T17:16:20.386Z,95.00
2018-05-24T17:18:48.146Z,94.90
2018-05-24T17:21:15.994Z,95.00
2018-05-24T17:23:43.680Z,95.10
2018-05-24T17:26:11.433Z,95.10
2018-05-24T17:28:40.248Z,95.40
2018-05-24T17:31:07.931Z,95.40
2018-05-24T17:33:37.032Z,95.50
2018-05-24T17:36:04.773Z,95.50
2018-05-24T17:38:33.255Z,95.80
2018-05-24T17:41:00.980Z,95.80
2018-05-24T17:43:29.443Z,96.50
2018-05-24T17:45:57.039Z,96.30
2018-05-24T17:48:24.669Z,96.40
2018-05-24T17:50:52.327Z,96.40
2018-05-24T17:53:23.898Z,96.70
2018-05-24T17:55:51.721Z,97.60
2018-05-24T17:58:21.962Z,97.50
2018-05-24T18:00:49.588Z,97.90
2018-05-24T18:03:17.316Z,98.10
2018-05-24T18:05:44.954Z,98.30
2018-05-24T18:08:13.328Z,98.50
2018-05-24T18:10:41.744Z,99.00
2018-05-24T18:13:10.222Z,99.20
2018-05-24T18:15:39.762Z,99.10
2018-05-24T18:18:07.450Z,99.30
2018-05-24T18:20:35.091Z,99.70
2018-05-24T18:23:02.771Z,99.70
2018-05-24T18:25:31.146Z,99.80
2018-05-24T18:27:58.944Z,99.90
2018-05-24T18:30:27.790Z,99.90
2018-05-24T18:32:56.075Z,99.90
2018-05-24T18:35:24.562Z,99.90
2018-05-24T18:37:52.507Z,99.90
2018-05-24T18:40:20.197Z,99.90
2018-05-24T18:42:48.391Z,99.90
2018-05-24T18:45:16.291Z,99.90
2018-05-24T18:47:44.008Z,99.90
2018-05-24T18:50:19.697Z,99.90
2018-05-24T18:52:47.329Z,99.90
2018-05-24T18:55:15.012Z,99.90
2018-05-24T18:57:42.667Z,99.90
2018-05-24T19:00:11.119Z,99.90
2018-05-24T19:02:38.756Z,99.90
2018-05-24T19:05:06.428Z,99.90
2018-05-24T19:07:34.074Z,99.90
2018-05-24T19:10:01.874Z,99.90
2018-05-24T19:12:29.599Z,99.90
2018-05-24T19:14:58.702Z,99.90
2018-05-24T19:17:27.184Z,99.90
2018-05-24T19:19:54.823Z,99.90
2018-05-24T19:22:22.399Z,99.90
2018-05-24T19:24:50.181Z,99.90
2018-05-24T19:27:18.549Z,99.90
2018-05-24T19:29:46.226Z,99.90
2018-05-24T19:32:14.033Z,99.90
2018-05-24T19:34:41.811Z,99.90
2018-05-24T19:37:09.425Z,99.90
2018-05-24T19:39:37.043Z,99.90
2018-05-24T19:42:04.735Z,99.90
2018-05-24T19:44:32.677Z,99.90
2018-05-24T19:47:00.533Z,99.90
2018-05-24T19:49:28.459Z,99.90
2018-05-24T19:51:56.941Z,99.90
2018-05-24T19:54:24.621Z,99.90
2018-05-24T19:56:52.282Z,99.90
2018-05-24T19:59:20.719Z,99.90
2018-05-24T20:01:50.748Z,99.90
2018-05-24T20:04:18.553Z,99.90
2018-05-24T20:06:47.710Z,99.90
2018-05-24T20:09:15.472Z,99.90
2018-05-24T20:14:18.013Z,99.90
2018-05-24T20:16:52.602Z,99.90
2018-05-24T20:19:20.222Z,99.90
2018-05-24T20:21:50.712Z,99.90
2018-05-24T20:24:18.394Z,99.90
2018-05-24T20:26:47.203Z,99.90
2018-05-24T20:29:16.039Z,99.90
2018-05-24T20:31:43.733Z,99.90
2018-05-24T20:34:11.365Z,99.90
2018-05-24T20:36:39.885Z,99.90
2018-05-24T20:39:10.074Z,99.90
2018-05-24T20:41:37.766Z,99.90
2018-05-24T20:44:06.535Z,99.90
2018-05-24T20:46:35.277Z,99.90
2018-05-24T20:49:04.804Z,99.90
2018-05-24T20:51:35.141Z,99.90
2018-05-24T20:54:02.844Z,99.90
2018-05-24T20:56:30.492Z,99.90
2018-05-24T20:58:58.821Z,99.90
2018-05-24T21:01:28.389Z,99.90
2018-05-24T21:03:56.086Z,99.90
2018-05-24T21:06:24.130Z,99.90
2018-05-24T21:08:52.549Z,99.90
2018-05-24T21:11:20.863Z,99.90
2018-05-24T21:13:48.512Z,99.90
2018-05-24T21:16:17.643Z,99.90
2018-05-24T21:18:45.697Z,99.90
2018-05-24T21:21:14.593Z,99.90
2018-05-24T21:23:42.309Z,99.90
2018-05-24T21:26:11.296Z,99.90
2018-05-24T21:28:39.032Z,99.90
2018-05-24T21:31:07.550Z,99.90
2018-05-24T21:33:36.361Z,99.90
2018-05-24T21:36:05.320Z,99.90
2018-05-24T21:38:34.005Z,99.90
2018-05-24T21:41:04.569Z,99.90
2018-05-24T21:43:32.532Z,99.90
2018-05-24T21:46:00.247Z,99.90
2018-05-24T21:48:27.920Z,99.90
2018-05-24T21:50:56.159Z,99.90
2018-05-24T21:53:25.902Z,99.90
2018-05-24T21:55:54.332Z,99.90
2018-05-24T21:58:22.014Z,99.90
2018-05-24T22:00:52.154Z,99.90
2018-05-24T22:03:19.785Z,99.90
2018-05-24T22:05:47.439Z,99.90
2018-05-24T22:08:15.061Z,99.90
2018-05-24T22:10:42.733Z,99.90
2018-05-24T22:13:10.361Z,99.90
2018-05-24T22:15:38.585Z,99.90
2018-05-24T22:18:06.317Z,99.90
2018-05-24T22:20:34.044Z,99.90
2018-05-24T22:23:02.019Z,99.90
2018-05-24T22:25:30.451Z,99.90
2018-05-24T22:27:58.553Z,99.90
2018-05-24T22:30:26.232Z,99.90
2018-05-24T22:32:53.969Z,99.90
2018-05-24T22:35:21.597Z,99.90
2018-05-24T22:37:49.988Z,99.90
2018-05-24T22:40:18.594Z,99.90
2018-05-24T22:42:46.179Z,99.90
2018-05-24T22:45:13.843Z,99.90
2018-05-24T22:47:41.453Z,99.90
2018-05-24T22:50:09.070Z,99.90
2018-05-24T22:52:37.226Z,99.90
2018-05-24T22:55:04.856Z,99.90
2018-05-24T22:57:32.489Z,99.90
2018-05-24T23:00:00.156Z,99.90
2018-05-24T23:02:27.763Z,99.90
2018-05-24T23:04:55.490Z,99.90
2018-05-24T23:07:23.072Z,99.90
2018-05-24T23:09:50.807Z,99.90
2018-05-24T23:12:18.419Z,99.90
2018-05-24T23:14:46.858Z,99.90
2018-05-24T23:17:14.537Z,99.90
2018-05-24T23:19:42.311Z,99.90
2018-05-24T23:22:12.653Z,99.90
2018-05-24T23:24:40.292Z,99.90
2018-05-24T23:27:07.906Z,99.90
2018-05-24T23:29:36.293Z,99.90
2018-05-24T23:32:04.804Z,99.90
2018-05-24T23:34:32.423Z,99.90
2018-05-24T23:37:00.880Z,99.90
2018-05-24T23:39:28.530Z,99.90
2018-05-24T23:41:56.937Z,99.90
2018-05-24T23:44:24.562Z,99.90
2018-05-24T23:46:52.178Z,99.90
2018-05-24T23:49:20.635Z,99.90
2018-05-24T23:51:51.504Z,99.90
2018-05-24T23:54:19.118Z,99.90
2018-05-24T23:56:46.749Z,99.90
2018-05-24T23:59:14.487Z,99.90
